TimeCDT,TemperatureF,Dew PointF,Humidity,Sea Level PressureIn,VisibilityMPH,Wind Direction,Wind SpeedMPH,Gust SpeedMPH,PrecipitationIn,Events,Conditions,WindDirDegrees,DateUTC
12:53 AM,36.0,28.9,76,30.15,10.0,Calm,Calm,-,N/A,,Clear,0,2012-10-10 05:53:00
1:53 AM,39.0,30.9,73,30.17,10.0,Calm,Calm,-,N/A,,Clear,0,2012-10-10 06:53:00
2:53 AM,37.9,28.9,70,30.20,10.0,WNW,5.8,-,N/A,,Clear,300,2012-10-10 07:53:00
3:53 AM,36.0,27.0,70,30.21,10.0,NW,4.6,-,N/A,,Clear,320,2012-10-10 08:53:00
4:53 AM,37.0,28.0,70,30.22,10.0,Calm,Calm,-,N/A,,Clear,0,2012-10-10 09:53:00
5:53 AM,35.1,28.0,76,30.25,10.0,Calm,Calm,-,N/A,,Clear,0,2012-10-10 10:53:00
6:53 AM,35.1,28.0,76,30.26,10.0,WNW,3.5,-,N/A,,Clear,300,2012-10-10 11:53:00
7:53 AM,36.0,28.0,73,30.27,10.0,Calm,Calm,-,N/A,,Clear,0,2012-10-10 12:53:00
8:53 AM,42.1,30.9,65,30.29,10.0,Calm,Calm,-,N/A,,Clear,0,2012-10-10 13:53:00
9:53 AM,48.0,28.9,48,30.30,10.0,Calm,Calm,-,N/A,,Clear,0,2012-10-10 14:53:00
10:53 AM,53.1,28.9,40,30.31,10.0,SW,3.5,-,N/A,,Clear,230,2012-10-10 15:53:00
11:53 AM,55.9,26.1,32,30.30,10.0,Calm,Calm,-,N/A,,Clear,0,2012-10-10 16:53:00
12:53 PM,57.9,26.1,30,30.29,10.0,Variable,3.5,-,N/A,,Clear,0,2012-10-10 17:53:00
1:53 PM,59.0,26.1,28,30.25,10.0,Variable,4.6,-,N/A,,Clear,0,2012-10-10 18:53:00
2:53 PM,62.1,27.0,26,30.22,10.0,WSW,6.9,-,N/A,,Clear,240,2012-10-10 19:53:00
3:53 PM,62.1,26.1,25,30.20,10.0,Calm,Calm,-,N/A,,Clear,0,2012-10-10 20:53:00
4:53 PM,61.0,28.9,30,30.18,10.0,SE,8.1,-,N/A,,Clear,140,2012-10-10 21:53:00
5:53 PM,57.9,30.0,35,30.17,10.0,SSE,5.8,-,N/A,,Clear,160,2012-10-10 22:53:00
6:53 PM,51.1,30.9,46,30.17,10.0,SSE,6.9,-,N/A,,Clear,160,2012-10-10 23:53:00
7:53 PM,48.0,32.0,54,30.17,10.0,SSE,5.8,-,N/A,,Clear,160,2012-10-11 00:53:00
8:53 PM,46.0,32.0,58,30.17,10.0,SSE,5.8,-,N/A,,Clear,160,2012-10-11 01:53:00
9:53 PM,45.0,33.1,63,30.17,10.0,SSE,5.8,-,N/A,,Clear,160,2012-10-11 02:53:00
10:53 PM,44.1,33.1,65,30.17,10.0,SSE,5.8,-,N/A,,Clear,160,2012-10-11 03:53:00
11:53 PM,43.0,34.0,71,30.16,10.0,SSE,6.9,-,N/A,,Clear,160,2012-10-11 04:53:00